sensor_id;sensor_type;location;lat;lon;timestamp;temperature;humidity
23323;DHT22;11833;52.554;13.554;2023-01-04T01:01:15;5.50;99.90
23323;DHT22;11833;52.554;13.554;2023-01-04T01:03:40;5.30;99.90
23323;DHT22;11833;52.554;13.554;2023-01-04T01:06:08;5.50;99.90
23323;DHT22;11833;52.554;13.554;2023-01-04T01:08:35;5.60;99.90
23323;DHT22;11833;52.554;13.554;2023-01-04T01:11:06;5.50;99.90
23323;DHT22;11833;52.554;13.554;2023-01-04T01:13:33;5.60;99.90
23323;DHT22;11833;52.554;13.554;2023-01-04T01:16:08;5.70;99.90
23323;DHT22;11833;52.554;13.554;2023-01-04T01:18:37;5.60;99.90
23323;DHT22;11833;52.554;13.554;2023-01-04T01:21:05;5.70;99.90
23323;DHT22;11833;52.554;13.554;2023-01-04T01:23:32;5.60;99.90
23323;DHT22;11833;52.554;13.554;2023-01-04T01:26:03;5.10;99.90
23323;DHT22;11833;52.554;13.554;2023-01-04T01:28:30;5.10;99.90
23323;DHT22;11833;52.554;13.554;2023-01-04T01:30:56;5.50;99.90
23323;DHT22;11833;52.554;13.554;2023-01-04T01:33:27;5.30;99.90
23323;DHT22;11833;52.554;13.554;2023-01-04T01:35:53;5.50;99.90
23323;DHT22;11833;52.554;13.554;2023-01-04T01:38:18;5.70;99.90
23323;DHT22;11833;52.554;13.554;2023-01-04T01:40:44;5.70;99.90
23323;DHT22;11833;52.554;13.554;2023-01-04T01:43:19;5.30;99.90
23323;DHT22;11833;52.554;13.554;2023-01-04T01:45:48;5.50;99.90
23323;DHT22;11833;52.554;13.554;2023-01-04T01:48:22;5.50;99.90
23323;DHT22;11833;52.554;13.554;2023-01-04T01:50:56;5.60;99.90
23323;DHT22;11833;52.554;13.554;2023-01-04T01:53:27;5.40;99.90
23323;DHT22;11833;52.554;13.554;2023-01-04T01:55:55;5.30;99.90
23323;DHT22;11833;52.554;13.554;2023-01-04T01:58:38;5.00;99.90
23323;DHT22;11833;52.554;13.554;2023-01-04T02:01:06;5.20;99.90
23323;DHT22;11833;52.554;13.554;2023-01-04T02:03:39;5.10;99.90
23323;DHT22;11833;52.554;13.554;2023-01-04T02:06:11;5.40;99.90
23323;DHT22;11833;52.554;13.554;2023-01-04T02:08:40;5.10;99.90
23323;DHT22;11833;52.554;13.554;2023-01-04T02:11:07;5.10;99.90
23323;DHT22;11833;52.554;13.554;2023-01-04T02:13:34;5.20;99.90
23323;DHT22;11833;52.554;13.554;2023-01-04T02:16:39;5.50;99.90
23323;DHT22;11833;52.554;13.554;2023-01-04T02:19:46;5.40;99.90
23323;DHT22;11833;52.554;13.554;2023-01-04T02:22:42;5.50;99.90
23323;DHT22;11833;52.554;13.554;2023-01-04T02:25:32;5.50;99.90
23323;DHT22;11833;52.554;13.554;2023-01-04T02:31:13;6.00;99.90
23323;DHT22;11833;52.554;13.554;2023-01-04T02:40:09;5.50;99.90
23323;DHT22;11833;52.554;13.554;2023-01-04T02:42:44;5.60;99.90
23323;DHT22;11833;52.554;13.554;2023-01-04T02:45:41;5.60;99.90
23323;DHT22;11833;52.554;13.554;2023-01-04T02:48:09;5.70;99.90
23323;DHT22;11833;52.554;13.554;2023-01-04T02:50:58;5.60;99.90
23323;DHT22;11833;52.554;13.554;2023-01-04T02:53:33;5.50;99.90
23323;DHT22;11833;52.554;13.554;2023-01-04T03:02:56;5.60;99.90
23323;DHT22;11833;52.554;13.554;2023-01-04T03:11:43;5.60;99.90
23323;DHT22;11833;52.554;13.554;2023-01-04T03:14:30;5.20;99.90
23323;DHT22;11833;52.554;13.554;2023-01-04T03:17:05;5.60;99.90
23323;DHT22;11833;52.554;13.554;2023-01-04T03:19:34;5.80;99.90
23323;DHT22;11833;52.554;13.554;2023-01-04T03:22:31;5.40;99.90
23323;DHT22;11833;52.554;13.554;2023-01-04T03:25:26;5.50;99.90
23323;DHT22;11833;52.554;13.554;2023-01-04T03:28:13;5.00;99.90
23323;DHT22;11833;52.554;13.554;2023-01-04T03:31:53;5.50;99.90
23323;DHT22;11833;52.554;13.554;2023-01-04T03:34:16;5.40;99.90
23323;DHT22;11833;52.554;13.554;2023-01-04T03:37:13;5.40;99.90
23323;DHT22;11833;52.554;13.554;2023-01-04T03:43:10;5.20;99.90
23323;DHT22;11833;52.554;13.554;2023-01-04T03:46:11;5.10;99.90
23323;DHT22;11833;52.554;13.554;2023-01-04T03:49:04;5.20;99.90
23323;DHT22;11833;52.554;13.554;2023-01-04T03:51:36;5.30;99.90
23323;DHT22;11833;52.554;13.554;2023-01-04T03:54:13;5.30;99.90
23323;DHT22;11833;52.554;13.554;2023-01-04T03:56:43;5.30;99.90
23323;DHT22;11833;52.554;13.554;2023-01-04T03:59:10;5.30;99.90
23323;DHT22;11833;52.554;13.554;2023-01-04T04:01:37;5.10;99.90
23323;DHT22;11833;52.554;13.554;2023-01-04T04:04:03;5.20;99.90
23323;DHT22;11833;52.554;13.554;2023-01-04T04:06:48;5.30;99.90
23323;DHT22;11833;52.554;13.554;2023-01-04T04:09:32;5.00;99.90
23323;DHT22;11833;52.554;13.554;2023-01-04T04:11:58;5.50;99.90
23323;DHT22;11833;52.554;13.554;2023-01-04T04:14:24;5.20;99.90
23323;DHT22;11833;52.554;13.554;2023-01-04T04:16:50;5.40;99.90
23323;DHT22;11833;52.554;13.554;2023-01-04T04:19:16;5.30;99.90
23323;DHT22;11833;52.554;13.554;2023-01-04T04:21:41;5.20;99.90
23323;DHT22;11833;52.554;13.554;2023-01-04T04:24:21;5.00;99.90
23323;DHT22;11833;52.554;13.554;2023-01-04T04:26:52;4.80;99.90
23323;DHT22;11833;52.554;13.554;2023-01-04T04:29:19;4.90;99.90
23323;DHT22;11833;52.554;13.554;2023-01-04T04:31:45;4.90;99.90
23323;DHT22;11833;52.554;13.554;2023-01-04T04:34:11;5.30;99.90
23323;DHT22;11833;52.554;13.554;2023-01-04T04:36:37;5.00;99.90
23323;DHT22;11833;52.554;13.554;2023-01-04T04:39:03;5.10;99.90
23323;DHT22;11833;52.554;13.554;2023-01-04T04:41:29;5.00;99.90
23323;DHT22;11833;52.554;13.554;2023-01-04T04:44:15;4.80;99.90
23323;DHT22;11833;52.554;13.554;2023-01-04T04:46:43;5.10;99.90
23323;DHT22;11833;52.554;13.554;2023-01-04T04:49:09;5.30;99.90
23323;DHT22;11833;52.554;13.554;2023-01-04T04:51:36;4.90;99.90
23323;DHT22;11833;52.554;13.554;2023-01-04T04:54:03;4.90;99.90
23323;DHT22;11833;52.554;13.554;2023-01-04T04:56:29;4.80;99.90
23323;DHT22;11833;52.554;13.554;2023-01-04T04:58:55;4.90;99.90
23323;DHT22;11833;52.554;13.554;2023-01-04T05:01:21;4.70;99.90
23323;DHT22;11833;52.554;13.554;2023-01-04T05:03:47;4.90;99.90
23323;DHT22;11833;52.554;13.554;2023-01-04T05:06:13;4.70;99.90
23323;DHT22;11833;52.554;13.554;2023-01-04T05:08:39;4.80;99.90
23323;DHT22;11833;52.554;13.554;2023-01-04T05:11:09;5.10;99.90
23323;DHT22;11833;52.554;13.554;2023-01-04T05:13:36;5.40;99.90
23323;DHT22;11833;52.554;13.554;2023-01-04T05:16:03;4.90;99.90
23323;DHT22;11833;52.554;13.554;2023-01-04T05:18:30;4.80;99.90
23323;DHT22;11833;52.554;13.554;2023-01-04T05:20:55;5.30;99.90
23323;DHT22;11833;52.554;13.554;2023-01-04T05:23:22;5.50;99.90
23323;DHT22;11833;52.554;13.554;2023-01-04T05:25:52;5.40;99.90
23323;DHT22;11833;52.554;13.554;2023-01-04T05:28:18;5.20;99.90
23323;DHT22;11833;52.554;13.554;2023-01-04T05:30:44;5.30;99.90
23323;DHT22;11833;52.554;13.554;2023-01-04T05:35:46;5.30;99.90
23323;DHT22;11833;52.554;13.554;2023-01-04T05:38:12;5.60;99.90
23323;DHT22;11833;52.554;13.554;2023-01-04T05:40:38;5.60;99.90
23323;DHT22;11833;52.554;13.554;2023-01-04T05:43:04;5.50;99.90
23323;DHT22;11833;52.554;13.554;2023-01-04T05:45:30;5.30;99.90
23323;DHT22;11833;52.554;13.554;2023-01-04T05:47:56;5.20;99.90
23323;DHT22;11833;52.554;13.554;2023-01-04T05:50:23;5.30;99.90
23323;DHT22;11833;52.554;13.554;2023-01-04T05:52:49;5.50;99.90
23323;DHT22;11833;52.554;13.554;2023-01-04T05:55:16;5.50;99.90
23323;DHT22;11833;52.554;13.554;2023-01-04T05:57:42;5.30;99.90
23323;DHT22;11833;52.554;13.554;2023-01-04T06:00:09;5.00;99.90
23323;DHT22;11833;52.554;13.554;2023-01-04T06:02:36;5.10;99.90
23323;DHT22;11833;52.554;13.554;2023-01-04T06:05:02;5.40;99.90
23323;DHT22;11833;52.554;13.554;2023-01-04T06:07:28;5.30;99.90
23323;DHT22;11833;52.554;13.554;2023-01-04T06:09:54;5.50;99.90
23323;DHT22;11833;52.554;13.554;2023-01-04T06:12:20;5.30;99.90
23323;DHT22;11833;52.554;13.554;2023-01-04T06:14:46;5.40;99.90
23323;DHT22;11833;52.554;13.554;2023-01-04T06:17:12;5.40;99.90
23323;DHT22;11833;52.554;13.554;2023-01-04T06:19:38;5.60;99.90
23323;DHT22;11833;52.554;13.554;2023-01-04T06:22:04;5.50;99.90
23323;DHT22;11833;52.554;13.554;2023-01-04T06:24:30;5.40;99.90
23323;DHT22;11833;52.554;13.554;2023-01-04T06:26:56;5.50;99.90
23323;DHT22;11833;52.554;13.554;2023-01-04T06:29:21;5.70;99.90
23323;DHT22;11833;52.554;13.554;2023-01-04T06:31:47;5.70;99.90
23323;DHT22;11833;52.554;13.554;2023-01-04T06:34:13;5.60;99.90
23323;DHT22;11833;52.554;13.554;2023-01-04T06:36:40;5.40;99.90
23323;DHT22;11833;52.554;13.554;2023-01-04T06:39:06;5.70;99.90
23323;DHT22;11833;52.554;13.554;2023-01-04T06:41:33;5.40;99.90
23323;DHT22;11833;52.554;13.554;2023-01-04T06:43:59;5.70;99.90
23323;DHT22;11833;52.554;13.554;2023-01-04T06:46:25;5.50;99.90
23323;DHT22;11833;52.554;13.554;2023-01-04T06:48:51;5.90;99.90
23323;DHT22;11833;52.554;13.554;2023-01-04T06:51:21;6.00;99.90
23323;DHT22;11833;52.554;13.554;2023-01-04T06:53:47;6.00;99.90
23323;DHT22;11833;52.554;13.554;2023-01-04T06:56:14;6.00;99.90
23323;DHT22;11833;52.554;13.554;2023-01-04T06:58:40;5.80;99.90
23323;DHT22;11833;52.554;13.554;2023-01-04T07:01:06;5.80;99.90
23323;DHT22;11833;52.554;13.554;2023-01-04T07:03:32;5.70;99.90
23323;DHT22;11833;52.554;13.554;2023-01-04T07:05:58;6.10;99.90
23323;DHT22;11833;52.554;13.554;2023-01-04T07:08:24;5.90;99.90
23323;DHT22;11833;52.554;13.554;2023-01-04T07:10:50;6.00;99.90
23323;DHT22;11833;52.554;13.554;2023-01-04T07:13:16;6.00;99.90
23323;DHT22;11833;52.554;13.554;2023-01-04T07:15:42;6.00;99.90
23323;DHT22;11833;52.554;13.554;2023-01-04T07:18:09;6.30;99.90
23323;DHT22;11833;52.554;13.554;2023-01-04T07:20:36;6.50;99.90
23323;DHT22;11833;52.554;13.554;2023-01-04T07:23:03;6.30;99.90
23323;DHT22;11833;52.554;13.554;2023-01-04T07:25:29;6.30;99.90
23323;DHT22;11833;52.554;13.554;2023-01-04T07:27:55;6.40;99.90
23323;DHT22;11833;52.554;13.554;2023-01-04T07:30:21;6.40;99.90
23323;DHT22;11833;52.554;13.554;2023-01-04T07:32:50;6.40;99.90
23323;DHT22;11833;52.554;13.554;2023-01-04T07:35:17;6.50;99.90
23323;DHT22;11833;52.554;13.554;2023-01-04T07:37:43;6.90;99.90
23323;DHT22;11833;52.554;13.554;2023-01-04T07:40:09;7.00;99.90
23323;DHT22;11833;52.554;13.554;2023-01-04T07:42:36;7.00;99.90
23323;DHT22;11833;52.554;13.554;2023-01-04T07:45:03;6.60;99.90
23323;DHT22;11833;52.554;13.554;2023-01-04T07:47:29;6.50;99.90
23323;DHT22;11833;52.554;13.554;2023-01-04T07:49:55;6.40;99.90
23323;DHT22;11833;52.554;13.554;2023-01-04T07:52:21;6.50;99.90
23323;DHT22;11833;52.554;13.554;2023-01-04T07:54:47;6.60;99.90
23323;DHT22;11833;52.554;13.554;2023-01-04T07:57:12;6.40;99.90
23323;DHT22;11833;52.554;13.554;2023-01-04T07:59:38;6.30;99.90
23323;DHT22;11833;52.554;13.554;2023-01-04T08:02:04;6.50;99.90
23323;DHT22;11833;52.554;13.554;2023-01-04T08:04:30;6.50;99.90
23323;DHT22;11833;52.554;13.554;2023-01-04T08:06:56;6.20;99.90
23323;DHT22;11833;52.554;13.554;2023-01-04T08:09:21;6.40;99.90
23323;DHT22;11833;52.554;13.554;2023-01-04T08:11:47;6.30;99.90
23323;DHT22;11833;52.554;13.554;2023-01-04T08:14:13;6.30;99.90
23323;DHT22;11833;52.554;13.554;2023-01-04T08:16:41;6.30;99.90
23323;DHT22;11833;52.554;13.554;2023-01-04T08:19:18;6.30;99.90
23323;DHT22;11833;52.554;13.554;2023-01-04T08:21:45;6.30;99.90
23323;DHT22;11833;52.554;13.554;2023-01-04T08:24:13;6.50;99.90
23323;DHT22;11833;52.554;13.554;2023-01-04T08:26:40;6.50;99.90
23323;DHT22;11833;52.554;13.554;2023-01-04T08:29:06;6.50;99.90
23323;DHT22;11833;52.554;13.554;2023-01-04T08:31:33;6.30;99.90
23323;DHT22;11833;52.554;13.554;2023-01-04T08:34:01;6.20;99.90
23323;DHT22;11833;52.554;13.554;2023-01-04T08:36:32;6.40;99.90
23323;DHT22;11833;52.554;13.554;2023-01-04T08:39:04;6.60;99.90
23323;DHT22;11833;52.554;13.554;2023-01-04T08:41:32;6.60;99.90
23323;DHT22;11833;52.554;13.554;2023-01-04T08:44:18;6.60;99.90
23323;DHT22;11833;52.554;13.554;2023-01-04T08:46:45;6.60;99.90
23323;DHT22;11833;52.554;13.554;2023-01-04T08:49:11;6.90;99.90
23323;DHT22;11833;52.554;13.554;2023-01-04T08:51:37;6.70;99.90
23323;DHT22;11833;52.554;13.554;2023-01-04T08:54:03;6.50;99.90
23323;DHT22;11833;52.554;13.554;2023-01-04T08:56:28;6.70;99.90
23323;DHT22;11833;52.554;13.554;2023-01-04T08:58:54;6.40;99.90
23323;DHT22;11833;52.554;13.554;2023-01-04T09:01:20;6.50;99.90
23323;DHT22;11833;52.554;13.554;2023-01-04T09:03:47;6.50;99.90
23323;DHT22;11833;52.554;13.554;2023-01-04T09:06:14;6.40;99.90
23323;DHT22;11833;52.554;13.554;2023-01-04T09:08:41;6.50;99.90
23323;DHT22;11833;52.554;13.554;2023-01-04T09:11:11;6.40;99.90
23323;DHT22;11833;52.554;13.554;2023-01-04T09:13:39;6.30;99.90
23323;DHT22;11833;52.554;13.554;2023-01-04T09:16:11;6.70;99.90
23323;DHT22;11833;52.554;13.554;2023-01-04T09:18:42;7.30;99.90
23323;DHT22;11833;52.554;13.554;2023-01-04T09:21:14;7.20;99.90
23323;DHT22;11833;52.554;13.554;2023-01-04T09:23:42;7.50;99.90
23323;DHT22;11833;52.554;13.554;2023-01-04T09:26:14;7.60;99.90
23323;DHT22;11833;52.554;13.554;2023-01-04T09:28:40;7.30;99.90
23323;DHT22;11833;52.554;13.554;2023-01-04T09:31:08;7.40;99.90
23323;DHT22;11833;52.554;13.554;2023-01-04T09:33:39;7.80;99.90
23323;DHT22;11833;52.554;13.554;2023-01-04T09:36:07;7.50;99.90
23323;DHT22;11833;52.554;13.554;2023-01-04T09:38:34;7.70;99.90
23323;DHT22;11833;52.554;13.554;2023-01-04T09:46:38;7.80;99.90
23323;DHT22;11833;52.554;13.554;2023-01-04T09:51:47;8.00;99.90
23323;DHT22;11833;52.554;13.554;2023-01-04T09:54:21;8.20;99.90
23323;DHT22;11833;52.554;13.554;2023-01-04T09:56:50;8.10;99.90
23323;DHT22;11833;52.554;13.554;2023-01-04T09:59:23;7.90;99.90
23323;DHT22;11833;52.554;13.554;2023-01-04T10:02:28;7.60;99.90
23323;DHT22;11833;52.554;13.554;2023-01-04T10:04:59;8.10;99.90
23323;DHT22;11833;52.554;13.554;2023-01-04T10:07:31;8.00;99.90
23323;DHT22;11833;52.554;13.554;2023-01-04T10:09:58;8.10;99.90
23323;DHT22;11833;52.554;13.554;2023-01-04T10:12:52;8.10;99.90
23323;DHT22;11833;52.554;13.554;2023-01-04T10:15:42;7.50;99.90
23323;DHT22;11833;52.554;13.554;2023-01-04T10:23:57;7.10;99.90
23323;DHT22;11833;52.554;13.554;2023-01-04T10:26:49;7.20;99.90
23323;DHT22;11833;52.554;13.554;2023-01-04T10:32:30;7.20;99.90
23323;DHT22;11833;52.554;13.554;2023-01-04T10:35:02;7.10;99.90
23323;DHT22;11833;52.554;13.554;2023-01-04T10:37:47;7.00;99.90
23323;DHT22;11833;52.554;13.554;2023-01-04T10:40:16;7.10;99.90
23323;DHT22;11833;52.554;13.554;2023-01-04T10:43:02;7.20;99.90
23323;DHT22;11833;52.554;13.554;2023-01-04T10:45:35;7.20;99.90
23323;DHT22;11833;52.554;13.554;2023-01-04T10:48:32;7.10;99.90
23323;DHT22;11833;52.554;13.554;2023-01-04T10:51:04;7.50;99.90
23323;DHT22;11833;52.554;13.554;2023-01-04T10:53:41;7.60;99.90
23323;DHT22;11833;52.554;13.554;2023-01-04T11:01:24;7.40;99.90
23323;DHT22;11833;52.554;13.554;2023-01-04T11:09:45;7.40;99.90
23323;DHT22;11833;52.554;13.554;2023-01-04T11:12:16;7.30;99.90
23323;DHT22;11833;52.554;13.554;2023-01-04T11:14:44;7.40;99.90
23323;DHT22;11833;52.554;13.554;2023-01-04T11:17:10;7.20;99.90
23323;DHT22;11833;52.554;13.554;2023-01-04T11:19:37;7.10;99.90
23323;DHT22;11833;52.554;13.554;2023-01-04T11:24:41;7.50;99.90
23323;DHT22;11833;52.554;13.554;2023-01-04T11:27:13;7.40;99.90
23323;DHT22;11833;52.554;13.554;2023-01-04T11:29:53;7.30;99.90
23323;DHT22;11833;52.554;13.554;2023-01-04T11:32:59;7.50;99.90
23323;DHT22;11833;52.554;13.554;2023-01-04T11:35:44;7.30;99.90
23323;DHT22;11833;52.554;13.554;2023-01-04T11:38:22;7.40;99.90
23323;DHT22;11833;52.554;13.554;2023-01-04T11:41:03;7.40;99.90
23323;DHT22;11833;52.554;13.554;2023-01-04T11:43:32;7.50;99.90
23323;DHT22;11833;52.554;13.554;2023-01-04T11:48:44;7.50;99.90
23323;DHT22;11833;52.554;13.554;2023-01-04T11:51:18;7.50;99.90
23323;DHT22;11833;52.554;13.554;2023-01-04T11:54:04;7.40;99.90
23323;DHT22;11833;52.554;13.554;2023-01-04T11:56:35;7.20;99.90
23323;DHT22;11833;52.554;13.554;2023-01-04T12:01:35;7.20;99.90
23323;DHT22;11833;52.554;13.554;2023-01-04T12:04:09;7.30;99.90
23323;DHT22;11833;52.554;13.554;2023-01-04T12:06:57;7.30;99.90
23323;DHT22;11833;52.554;13.554;2023-01-04T12:09:24;7.40;99.90
23323;DHT22;11833;52.554;13.554;2023-01-04T12:11:55;7.40;99.90
23323;DHT22;11833;52.554;13.554;2023-01-04T12:17:04;7.40;99.90
23323;DHT22;11833;52.554;13.554;2023-01-04T12:19:33;7.50;99.90
23323;DHT22;11833;52.554;13.554;2023-01-04T12:22:02;7.40;99.90
23323;DHT22;11833;52.554;13.554;2023-01-04T12:24:43;7.40;99.90
23323;DHT22;11833;52.554;13.554;2023-01-04T12:27:12;7.40;99.90
23323;DHT22;11833;52.554;13.554;2023-01-04T12:34:50;7.40;99.90
23323;DHT22;11833;52.554;13.554;2023-01-04T12:45:39;7.50;99.90
23323;DHT22;11833;52.554;13.554;2023-01-04T12:48:32;7.50;99.90
23323;DHT22;11833;52.554;13.554;2023-01-04T12:51:26;7.50;99.90
23323;DHT22;11833;52.554;13.554;2023-01-04T12:53:53;7.70;99.90
23323;DHT22;11833;52.554;13.554;2023-01-04T12:56:22;8.00;99.90
23323;DHT22;11833;52.554;13.554;2023-01-04T12:59:07;8.10;99.90
23323;DHT22;11833;52.554;13.554;2023-01-04T13:01:34;8.30;99.90
23323;DHT22;11833;52.554;13.554;2023-01-04T13:04:39;8.40;99.90
23323;DHT22;11833;52.554;13.554;2023-01-04T13:07:17;8.30;99.90
23323;DHT22;11833;52.554;13.554;2023-01-04T13:10:01;8.20;99.90
23323;DHT22;11833;52.554;13.554;2023-01-04T13:21:33;7.90;99.90
23323;DHT22;11833;52.554;13.554;2023-01-04T13:24:32;7.90;99.90
23323;DHT22;11833;52.554;13.554;2023-01-04T13:27:06;7.70;99.90
23323;DHT22;11833;52.554;13.554;2023-01-04T13:29:35;7.80;99.90
23323;DHT22;11833;52.554;13.554;2023-01-04T13:32:11;7.70;99.90
23323;DHT22;11833;52.554;13.554;2023-01-04T13:34:49;7.80;99.90
23323;DHT22;11833;52.554;13.554;2023-01-04T13:37:28;7.90;99.90
23323;DHT22;11833;52.554;13.554;2023-01-04T13:48:42;7.80;99.90
23323;DHT22;11833;52.554;13.554;2023-01-04T13:51:16;7.80;99.90
23323;DHT22;11833;52.554;13.554;2023-01-04T13:53:51;7.90;99.90
23323;DHT22;11833;52.554;13.554;2023-01-04T13:56:27;7.80;99.90
23323;DHT22;11833;52.554;13.554;2023-01-04T13:58:54;8.00;99.90
23323;DHT22;11833;52.554;13.554;2023-01-04T14:04:05;7.80;99.90
23323;DHT22;11833;52.554;13.554;2023-01-04T14:06:38;7.60;99.90
23323;DHT22;11833;52.554;13.554;2023-01-04T14:11:47;7.80;99.90
23323;DHT22;11833;52.554;13.554;2023-01-04T14:17:22;7.90;99.90
23323;DHT22;11833;52.554;13.554;2023-01-04T14:24:58;7.90;99.90
23323;DHT22;11833;52.554;13.554;2023-01-04T14:29:58;7.90;99.90
23323;DHT22;11833;52.554;13.554;2023-01-04T14:32:39;7.90;99.90
23323;DHT22;11833;52.554;13.554;2023-01-04T14:35:11;7.90;99.90
23323;DHT22;11833;52.554;13.554;2023-01-04T14:37:38;7.90;99.90
23323;DHT22;11833;52.554;13.554;2023-01-04T14:40:21;8.00;99.90
23323;DHT22;11833;52.554;13.554;2023-01-04T14:42:51;8.00;99.90
23323;DHT22;11833;52.554;13.554;2023-01-04T14:45:17;8.10;99.90
23323;DHT22;11833;52.554;13.554;2023-01-04T14:47:43;8.00;99.90
23323;DHT22;11833;52.554;13.554;2023-01-04T14:50:09;8.20;99.90
23323;DHT22;11833;52.554;13.554;2023-01-04T14:52:37;8.10;99.90
23323;DHT22;11833;52.554;13.554;2023-01-04T14:55:03;8.10;99.90
23323;DHT22;11833;52.554;13.554;2023-01-04T14:57:31;8.10;99.90
23323;DHT22;11833;52.554;13.554;2023-01-04T14:59:57;8.10;99.90
23323;DHT22;11833;52.554;13.554;2023-01-04T15:02:23;8.10;99.90
23323;DHT22;11833;52.554;13.554;2023-01-04T15:04:51;8.20;99.90
23323;DHT22;11833;52.554;13.554;2023-01-04T15:07:34;8.10;99.90
23323;DHT22;11833;52.554;13.554;2023-01-04T15:10:04;8.20;99.90
23323;DHT22;11833;52.554;13.554;2023-01-04T15:12:32;8.10;99.90
23323;DHT22;11833;52.554;13.554;2023-01-04T15:14:57;8.20;99.90
23323;DHT22;11833;52.554;13.554;2023-01-04T15:17:23;8.10;99.90
23323;DHT22;11833;52.554;13.554;2023-01-04T15:19:49;8.20;99.90
23323;DHT22;11833;52.554;13.554;2023-01-04T15:22:15;8.30;99.90
23323;DHT22;11833;52.554;13.554;2023-01-04T15:24:40;8.30;99.90
23323;DHT22;11833;52.554;13.554;2023-01-04T15:27:06;8.30;99.90
23323;DHT22;11833;52.554;13.554;2023-01-04T15:29:33;8.30;99.90
23323;DHT22;11833;52.554;13.554;2023-01-04T15:31:58;8.30;99.90
23323;DHT22;11833;52.554;13.554;2023-01-04T15:34:24;8.30;99.90
23323;DHT22;11833;52.554;13.554;2023-01-04T15:36:50;8.40;99.90
23323;DHT22;11833;52.554;13.554;2023-01-04T15:39:16;8.40;99.90
23323;DHT22;11833;52.554;13.554;2023-01-04T15:41:42;8.40;99.90
23323;DHT22;11833;52.554;13.554;2023-01-04T15:44:27;8.40;99.90
23323;DHT22;11833;52.554;13.554;2023-01-04T15:46:53;8.40;99.90
23323;DHT22;11833;52.554;13.554;2023-01-04T15:49:19;8.40;99.90
23323;DHT22;11833;52.554;13.554;2023-01-04T15:51:45;8.40;99.90
23323;DHT22;11833;52.554;13.554;2023-01-04T15:54:11;8.40;99.90
23323;DHT22;11833;52.554;13.554;2023-01-04T15:56:38;8.40;99.90
23323;DHT22;11833;52.554;13.554;2023-01-04T15:59:04;8.30;99.90
23323;DHT22;11833;52.554;13.554;2023-01-04T16:01:30;8.30;99.90
23323;DHT22;11833;52.554;13.554;2023-01-04T16:03:56;8.40;99.90
23323;DHT22;11833;52.554;13.554;2023-01-04T16:06:21;8.40;99.90
23323;DHT22;11833;52.554;13.554;2023-01-04T16:08:47;8.40;99.90
23323;DHT22;11833;52.554;13.554;2023-01-04T16:11:21;8.40;99.90
23323;DHT22;11833;52.554;13.554;2023-01-04T16:13:49;8.40;99.90
23323;DHT22;11833;52.554;13.554;2023-01-04T16:16:16;8.50;99.90
23323;DHT22;11833;52.554;13.554;2023-01-04T16:18:45;8.50;99.90
23323;DHT22;11833;52.554;13.554;2023-01-04T16:21:12;8.50;99.90
23323;DHT22;11833;52.554;13.554;2023-01-04T16:23:38;8.50;99.90
23323;DHT22;11833;52.554;13.554;2023-01-04T16:28:32;8.50;99.90
23323;DHT22;11833;52.554;13.554;2023-01-04T16:30:58;8.50;99.90
23323;DHT22;11833;52.554;13.554;2023-01-04T16:33:25;8.60;99.90
23323;DHT22;11833;52.554;13.554;2023-01-04T16:35:59;8.50;99.90
23323;DHT22;11833;52.554;13.554;2023-01-04T16:38:25;8.50;99.90
23323;DHT22;11833;52.554;13.554;2023-01-04T16:41:00;8.50;99.90
23323;DHT22;11833;52.554;13.554;2023-01-04T16:43:27;8.50;99.90
23323;DHT22;11833;52.554;13.554;2023-01-04T16:48:44;8.60;99.90
23323;DHT22;11833;52.554;13.554;2023-01-04T16:51:11;8.50;99.90
23323;DHT22;11833;52.554;13.554;2023-01-04T16:53:37;8.60;99.90
23323;DHT22;11833;52.554;13.554;2023-01-04T16:56:09;8.60;99.90
23323;DHT22;11833;52.554;13.554;2023-01-04T16:58:36;8.60;99.90
23323;DHT22;11833;52.554;13.554;2023-01-04T17:01:08;8.60;99.90
23323;DHT22;11833;52.554;13.554;2023-01-04T17:03:36;8.60;99.90
23323;DHT22;11833;52.554;13.554;2023-01-04T17:06:14;8.60;99.90
23323;DHT22;11833;52.554;13.554;2023-01-04T17:08:46;8.70;99.90
23323;DHT22;11833;52.554;13.554;2023-01-04T17:11:17;8.70;99.90
23323;DHT22;11833;52.554;13.554;2023-01-04T17:13:47;8.70;99.90
23323;DHT22;11833;52.554;13.554;2023-01-04T17:16:14;8.80;99.90
23323;DHT22;11833;52.554;13.554;2023-01-04T17:18:40;8.80;99.90
23323;DHT22;11833;52.554;13.554;2023-01-04T17:21:10;8.80;99.90
23323;DHT22;11833;52.554;13.554;2023-01-04T17:23:40;8.90;99.90
23323;DHT22;11833;52.554;13.554;2023-01-04T17:26:13;8.90;99.90
23323;DHT22;11833;52.554;13.554;2023-01-04T17:28:41;8.90;99.90
23323;DHT22;11833;52.554;13.554;2023-01-04T17:31:10;8.90;99.90
23323;DHT22;11833;52.554;13.554;2023-01-04T17:33:44;8.90;99.90
23323;DHT22;11833;52.554;13.554;2023-01-04T17:36:12;9.00;99.90
23323;DHT22;11833;52.554;13.554;2023-01-04T17:38:38;9.10;99.90
23323;DHT22;11833;52.554;13.554;2023-01-04T17:41:16;9.20;99.90
23323;DHT22;11833;52.554;13.554;2023-01-04T17:43:45;9.20;99.90
23323;DHT22;11833;52.554;13.554;2023-01-04T17:46:18;9.20;99.90
23323;DHT22;11833;52.554;13.554;2023-01-04T17:48:45;9.20;99.90
23323;DHT22;11833;52.554;13.554;2023-01-04T17:51:14;9.20;99.90
23323;DHT22;11833;52.554;13.554;2023-01-04T17:53:42;9.20;99.90
23323;DHT22;11833;52.554;13.554;2023-01-04T17:56:14;9.20;99.90
23323;DHT22;11833;52.554;13.554;2023-01-04T17:58:41;9.20;99.90
23323;DHT22;11833;52.554;13.554;2023-01-04T18:01:13;9.30;99.90
23323;DHT22;11833;52.554;13.554;2023-01-04T18:03:46;9.30;99.90
23323;DHT22;11833;52.554;13.554;2023-01-04T18:06:14;9.30;99.90
23323;DHT22;11833;52.554;13.554;2023-01-04T18:08:40;9.30;99.90
23323;DHT22;11833;52.554;13.554;2023-01-04T18:11:07;9.30;99.90
23323;DHT22;11833;52.554;13.554;2023-01-04T18:13:36;9.30;99.90
23323;DHT22;11833;52.554;13.554;2023-01-04T18:16:07;9.30;99.90
23323;DHT22;11833;52.554;13.554;2023-01-04T18:18:34;9.30;99.90
23323;DHT22;11833;52.554;13.554;2023-01-04T18:23:43;9.30;99.90
23323;DHT22;11833;52.554;13.554;2023-01-04T18:26:09;9.40;99.90
23323;DHT22;11833;52.554;13.554;2023-01-04T18:28:35;9.40;99.90
23323;DHT22;11833;52.554;13.554;2023-01-04T18:31:07;9.50;99.90
23323;DHT22;11833;52.554;13.554;2023-01-04T18:33:37;9.50;99.90
23323;DHT22;11833;52.554;13.554;2023-01-04T18:36:05;9.40;99.90
23323;DHT22;11833;52.554;13.554;2023-01-04T18:38:32;9.40;99.90
23323;DHT22;11833;52.554;13.554;2023-01-04T18:40:58;9.50;99.90
23323;DHT22;11833;52.554;13.554;2023-01-04T18:43:24;9.50;99.90
23323;DHT22;11833;52.554;13.554;2023-01-04T18:45:49;9.50;99.90
23323;DHT22;11833;52.554;13.554;2023-01-04T18:48:15;9.50;99.90
23323;DHT22;11833;52.554;13.554;2023-01-04T18:50:41;9.50;99.90
23323;DHT22;11833;52.554;13.554;2023-01-04T18:53:06;9.60;99.90
23323;DHT22;11833;52.554;13.554;2023-01-04T18:55:32;9.60;99.90